createdAt,value
2022-09-22T00:01:05.719Z,3.83
2022-09-22T00:04:13.673Z,5.43
2022-09-22T00:07:18.103Z,5.30
2022-09-22T00:10:22.145Z,9.52
2022-09-22T00:16:31.755Z,4.20
2022-09-22T00:19:39.276Z,6.53
2022-09-22T00:22:43.209Z,3.22
2022-09-22T00:25:46.896Z,3.38
2022-09-22T00:28:52.526Z,4.50
2022-09-22T00:31:57.096Z,3.92
2022-09-22T00:35:03.053Z,3.10
2022-09-22T00:38:07.303Z,4.35
2022-09-22T00:41:18.252Z,5.75
2022-09-22T00:44:42.124Z,5.13
2022-09-22T00:47:47.787Z,4.93
2022-09-22T00:50:55.928Z,6.60
2022-09-22T00:54:02.010Z,5.78
2022-09-22T00:57:09.649Z,2.95
2022-09-22T01:00:15.559Z,3.22
2022-09-22T01:03:28.981Z,4.20
2022-09-22T01:09:40.255Z,5.60
2022-09-22T01:12:51.322Z,4.25
2022-09-22T01:16:07.198Z,2.58
2022-09-22T01:19:36.249Z,4.13
2022-09-22T01:23:08.765Z,3.40
2022-09-22T01:26:51.237Z,4.15
2022-09-22T01:30:27.512Z,5.78
2022-09-22T01:33:44.674Z,4.13
2022-09-22T01:36:55.122Z,4.05
2022-09-22T01:40:06.172Z,3.70
2022-09-22T01:43:16.219Z,2.30
2022-09-22T01:46:28.013Z,2.50
2022-09-22T01:49:36.838Z,2.92
2022-09-22T01:52:42.902Z,4.28
2022-09-22T01:55:51.090Z,3.08
2022-09-22T01:58:57.369Z,3.72
2022-09-22T02:02:06.334Z,4.70
2022-09-22T02:05:13.655Z,5.05
2022-09-22T02:08:28.859Z,3.67
2022-09-22T02:11:33.352Z,3.58
2022-09-22T02:14:37.146Z,3.70
2022-09-22T02:17:42.781Z,3.90
2022-09-22T02:20:47.176Z,4.18
2022-09-22T02:23:51.125Z,2.03
2022-09-22T02:26:58.322Z,4.03
2022-09-22T02:30:07.561Z,3.15
2022-09-22T02:33:14.208Z,5.60
2022-09-22T02:36:40.082Z,3.03
2022-09-22T02:39:48.734Z,6.07
2022-09-22T02:43:00.441Z,3.78
2022-09-22T02:46:10.336Z,2.63
2022-09-22T02:49:18.923Z,3.70
2022-09-22T02:52:25.570Z,3.15
2022-09-22T02:55:29.617Z,5.78
2022-09-22T02:58:33.280Z,3.05
2022-09-22T03:01:37.163Z,3.58
2022-09-22T03:04:42.828Z,4.07
2022-09-22T03:07:46.676Z,3.85
2022-09-22T03:10:50.386Z,3.38
2022-09-22T03:13:54.102Z,4.40
2022-09-22T03:16:57.850Z,8.63
2022-09-22T03:20:04.009Z,3.22
2022-09-22T03:23:07.677Z,11.65
2022-09-22T03:26:11.282Z,4.55
2022-09-22T03:29:14.890Z,7.10
2022-09-22T03:32:18.577Z,4.80
2022-09-22T03:35:24.200Z,5.80
2022-09-22T03:38:27.833Z,3.63
2022-09-22T03:41:31.481Z,3.40
2022-09-22T03:44:35.137Z,5.68
2022-09-22T03:47:38.723Z,5.43
2022-09-22T03:50:44.255Z,6.22
2022-09-22T03:53:47.890Z,3.40
2022-09-22T03:56:51.960Z,4.93
2022-09-22T04:02:59.500Z,2.95
2022-09-22T04:06:05.949Z,4.03
2022-09-22T04:09:10.030Z,7.45
2022-09-22T04:12:13.689Z,3.13
2022-09-22T04:15:17.493Z,3.28
2022-09-22T04:18:21.450Z,1.83
2022-09-22T04:24:33.768Z,2.38
2022-09-22T04:27:37.406Z,2.38
2022-09-22T04:30:43.262Z,2.00
2022-09-22T04:33:47.063Z,4.15
2022-09-22T04:36:52.570Z,4.18
2022-09-22T04:39:56.246Z,3.70
2022-09-22T04:42:59.922Z,3.90
2022-09-22T04:46:04.199Z,4.40
2022-09-22T04:49:07.805Z,6.72
2022-09-22T04:52:13.334Z,5.43
2022-09-22T04:55:17.197Z,3.03
2022-09-22T04:58:20.842Z,3.20
2022-09-22T05:01:26.691Z,9.43
2022-09-22T05:04:30.497Z,4.05
2022-09-22T05:07:36.389Z,3.80
2022-09-22T05:10:40.872Z,3.85
2022-09-22T05:13:44.475Z,7.45
2022-09-22T05:16:48.197Z,8.65
2022-09-22T05:19:54.173Z,10.25
2022-09-22T05:22:59.948Z,8.10
2022-09-22T05:26:03.573Z,7.43
2022-09-22T05:29:07.287Z,6.35
2022-09-22T05:32:10.943Z,5.93
2022-09-22T05:35:15.178Z,4.28
2022-09-22T05:38:21.466Z,4.85
2022-09-22T05:41:25.183Z,4.93
2022-09-22T05:44:28.801Z,6.35
2022-09-22T05:47:34.794Z,6.30
2022-09-22T05:50:38.467Z,8.43
2022-09-22T05:53:44.005Z,7.18
2022-09-22T05:56:47.594Z,9.20
2022-09-22T05:59:51.172Z,6.45
2022-09-22T06:02:55.003Z,6.55
2022-09-22T06:05:58.998Z,7.03
2022-09-22T06:09:04.770Z,8.25
2022-09-22T06:12:08.968Z,8.90
2022-09-22T06:15:12.589Z,8.20
2022-09-22T06:18:21.954Z,9.25
2022-09-22T06:21:27.921Z,11.18
2022-09-22T06:24:33.775Z,12.00
2022-09-22T06:27:37.391Z,12.20
2022-09-22T06:30:41.159Z,10.02
2022-09-22T06:33:48.024Z,8.55
2022-09-22T06:36:53.297Z,12.05
2022-09-22T06:39:58.832Z,11.18
2022-09-22T06:43:11.458Z,19.98
2022-09-22T06:46:17.922Z,10.85
2022-09-22T06:49:21.760Z,9.70
2022-09-22T06:52:26.586Z,9.02
2022-09-22T06:55:33.038Z,9.73
2022-09-22T06:58:58.647Z,12.52
2022-09-22T07:02:03.769Z,16.00
2022-09-22T07:05:07.937Z,10.90
2022-09-22T07:08:11.550Z,11.57
2022-09-22T07:11:23.001Z,19.77
2022-09-22T07:14:27.609Z,18.58
2022-09-22T07:17:32.034Z,13.25
2022-09-22T07:20:35.842Z,18.95
2022-09-22T07:26:45.973Z,17.25
2022-09-22T07:29:49.572Z,17.42
2022-09-22T07:32:53.210Z,15.43
2022-09-22T07:36:05.061Z,16.63
2022-09-22T07:39:10.738Z,25.98
2022-09-22T07:42:16.418Z,17.45
2022-09-22T07:45:22.974Z,18.23
2022-09-22T07:48:42.501Z,16.83
2022-09-22T07:51:46.684Z,19.35
2022-09-22T07:54:50.305Z,16.35
2022-09-22T07:58:00.701Z,21.05
2022-09-22T08:01:07.995Z,16.58
2022-09-22T08:04:16.094Z,15.90
2022-09-22T08:07:19.730Z,16.15
2022-09-22T08:10:23.331Z,11.82
2022-09-22T08:13:29.105Z,15.55
2022-09-22T08:16:34.588Z,15.43
2022-09-22T08:19:38.350Z,12.60
2022-09-22T08:22:42.282Z,11.48
2022-09-22T08:25:45.905Z,14.32
2022-09-22T08:28:55.338Z,14.25
2022-09-22T08:31:58.969Z,11.35
2022-09-22T08:35:03.228Z,11.85
2022-09-22T08:38:10.734Z,11.70
2022-09-22T08:41:23.737Z,24.02
2022-09-22T08:44:34.549Z,11.75
2022-09-22T08:47:56.168Z,8.68
2022-09-22T08:51:18.846Z,9.32
2022-09-22T08:54:26.150Z,9.90
2022-09-22T08:57:55.661Z,19.10
2022-09-22T09:01:11.490Z,10.60
2022-09-22T09:04:48.465Z,12.23
2022-09-22T09:08:00.252Z,10.20
2022-09-22T09:11:15.734Z,10.45
2022-09-22T09:14:43.300Z,9.38
2022-09-22T09:17:50.208Z,13.27
2022-09-22T09:20:53.975Z,12.38
2022-09-22T09:27:29.683Z,7.38
2022-09-22T09:30:39.926Z,14.32
2022-09-22T09:33:55.969Z,9.27
2022-09-22T09:37:07.541Z,10.63
2022-09-22T09:40:17.584Z,12.52
2022-09-22T09:43:24.146Z,9.40
2022-09-22T09:46:40.577Z,6.53
2022-09-22T09:49:52.833Z,12.18
2022-09-22T09:52:57.209Z,9.65
2022-09-22T09:56:00.981Z,5.53
2022-09-22T09:59:19.945Z,6.68
2022-09-22T10:02:26.840Z,8.02
2022-09-22T10:05:36.944Z,4.65
2022-09-22T10:08:45.523Z,8.27
2022-09-22T10:11:59.986Z,8.20
2022-09-22T10:15:04.795Z,12.48
2022-09-22T10:18:32.801Z,9.18
2022-09-22T10:21:38.376Z,2.72
2022-09-22T10:24:42.778Z,8.05
2022-09-22T10:28:00.771Z,7.13
2022-09-22T10:31:04.795Z,8.23
2022-09-22T10:34:30.582Z,4.22
2022-09-22T10:37:36.754Z,4.53
2022-09-22T10:40:43.335Z,3.85
2022-09-22T10:43:51.399Z,5.70
2022-09-22T10:47:19.510Z,10.52
2022-09-22T10:50:54.980Z,5.05
2022-09-22T10:54:20.827Z,6.03
2022-09-22T10:57:37.168Z,5.00
2022-09-22T11:00:42.295Z,5.78
2022-09-22T11:04:00.564Z,8.35
2022-09-22T11:07:32.154Z,6.95
2022-09-22T11:10:56.061Z,11.55
2022-09-22T11:14:10.418Z,5.68
2022-09-22T11:17:31.646Z,5.22
2022-09-22T11:20:37.919Z,6.10
2022-09-22T11:23:59.604Z,9.23
2022-09-22T11:27:06.150Z,4.95
2022-09-22T11:30:20.086Z,7.72
2022-09-22T11:33:39.360Z,5.50
2022-09-22T11:36:51.769Z,6.68
2022-09-22T11:40:18.173Z,5.15
2022-09-22T11:43:40.708Z,4.88
2022-09-22T11:47:00.487Z,3.42
2022-09-22T11:50:32.934Z,7.55
2022-09-22T11:54:11.549Z,4.30
2022-09-22T11:57:18.862Z,4.30
2022-09-22T12:00:24.519Z,4.05
2022-09-22T12:03:34.314Z,7.10
2022-09-22T12:06:44.260Z,5.10
2022-09-22T12:09:52.884Z,4.25
2022-09-22T12:12:56.840Z,5.75
2022-09-22T12:19:21.020Z,10.43
2022-09-22T12:22:30.639Z,5.10
2022-09-22T12:25:51.555Z,5.53
2022-09-22T12:28:57.385Z,5.22
2022-09-22T12:32:03.237Z,4.32
2022-09-22T12:35:10.099Z,6.80
2022-09-22T12:38:14.395Z,8.40
2022-09-22T12:41:20.703Z,5.03
2022-09-22T12:44:26.821Z,4.03
2022-09-22T12:47:35.112Z,5.88
2022-09-22T12:50:41.539Z,6.07
2022-09-22T12:57:27.635Z,6.47
2022-09-22T13:00:37.425Z,5.85
2022-09-22T13:03:51.852Z,4.53
2022-09-22T13:06:58.128Z,5.03
2022-09-22T13:10:34.640Z,7.60
2022-09-22T13:13:40.801Z,3.13
2022-09-22T13:16:45.800Z,4.93
2022-09-22T13:19:57.524Z,10.60
2022-09-22T13:23:07.923Z,4.65
2022-09-22T13:26:15.668Z,5.00
2022-09-22T13:29:21.426Z,5.53
2022-09-22T13:32:27.346Z,4.97
2022-09-22T13:35:36.064Z,5.38
2022-09-22T13:38:42.213Z,3.75
2022-09-22T13:41:50.110Z,10.15
2022-09-22T13:44:59.149Z,8.32
2022-09-22T13:48:09.369Z,8.20
2022-09-22T13:51:17.928Z,9.93
2022-09-22T13:54:26.774Z,7.95
2022-09-22T13:57:32.838Z,5.45
2022-09-22T14:01:08.494Z,9.90
2022-09-22T14:04:23.508Z,5.57
2022-09-22T14:07:31.721Z,7.70
2022-09-22T14:10:35.710Z,5.63
2022-09-22T14:16:50.008Z,7.80
2022-09-22T14:19:57.184Z,6.30
2022-09-22T14:23:02.873Z,5.95
2022-09-22T14:26:36.954Z,5.57
2022-09-22T14:29:41.473Z,4.97
2022-09-22T14:32:50.394Z,7.10
2022-09-22T14:36:01.877Z,5.20
2022-09-22T14:39:10.529Z,5.03
2022-09-22T14:42:22.320Z,4.75
2022-09-22T14:45:28.832Z,8.48
2022-09-22T14:48:35.609Z,5.35
2022-09-22T14:51:39.518Z,6.15
2022-09-22T14:57:51.072Z,7.45
2022-09-22T15:01:10.635Z,4.28
2022-09-22T15:04:20.525Z,8.43
2022-09-22T15:07:28.539Z,5.18
2022-09-22T15:10:34.857Z,5.22
2022-09-22T15:13:40.975Z,6.43
2022-09-22T15:16:44.663Z,7.93
2022-09-22T15:19:52.791Z,3.78
2022-09-22T15:22:56.780Z,4.60
2022-09-22T15:26:05.013Z,8.70
2022-09-22T15:29:11.992Z,2.65
2022-09-22T15:32:15.988Z,7.22
2022-09-22T15:38:26.837Z,3.60
2022-09-22T15:41:33.316Z,5.20
2022-09-22T15:44:37.133Z,2.92
2022-09-22T15:47:41.046Z,5.22
2022-09-22T15:53:48.100Z,4.32
2022-09-22T15:56:55.892Z,3.55
2022-09-22T15:59:59.542Z,3.42
2022-09-22T16:03:03.449Z,4.30
2022-09-22T16:06:09.483Z,2.85
2022-09-22T16:09:16.539Z,4.97
2022-09-22T16:12:23.529Z,6.45
2022-09-22T16:15:29.691Z,3.95
2022-09-22T16:18:34.751Z,6.65
2022-09-22T16:21:40.617Z,3.17
2022-09-22T16:24:44.258Z,4.70
2022-09-22T16:27:49.897Z,3.75
2022-09-22T16:30:53.502Z,5.30
2022-09-22T16:33:59.677Z,8.20
2022-09-22T16:37:03.299Z,6.80
2022-09-22T16:40:08.448Z,3.78
2022-09-22T16:43:14.126Z,5.07
2022-09-22T16:46:31.257Z,6.75
2022-09-22T16:49:36.905Z,3.08
2022-09-22T16:52:40.537Z,7.55
2022-09-22T16:55:49.664Z,4.03
2022-09-22T16:58:55.854Z,4.78
2022-09-22T17:01:59.583Z,5.22
2022-09-22T17:05:03.268Z,3.42
2022-09-22T17:08:07.589Z,3.97
2022-09-22T17:11:12.853Z,2.95
2022-09-22T17:14:20.499Z,5.25
2022-09-22T17:17:24.157Z,3.10
2022-09-22T17:20:28.233Z,4.47
2022-09-22T17:23:31.813Z,4.38
2022-09-22T17:26:38.289Z,5.20
2022-09-22T17:29:44.010Z,4.35
2022-09-22T17:32:47.850Z,8.82
2022-09-22T17:35:56.882Z,7.18
2022-09-22T17:39:02.214Z,7.65
2022-09-22T17:42:06.127Z,4.78
2022-09-22T17:45:12.569Z,5.68
2022-09-22T17:48:29.370Z,9.85
2022-09-22T17:51:47.933Z,11.25
2022-09-22T17:55:04.685Z,9.13
2022-09-22T17:58:09.390Z,8.95
2022-09-22T18:01:15.306Z,6.50
2022-09-22T18:04:18.969Z,7.00
2022-09-22T18:07:24.757Z,5.28
2022-09-22T18:10:31.674Z,3.80
2022-09-22T18:13:39.139Z,5.50
2022-09-22T18:16:45.801Z,5.93
2022-09-22T18:19:49.575Z,6.55
2022-09-22T18:22:53.184Z,6.40
2022-09-22T18:26:01.054Z,5.97
2022-09-22T18:29:09.326Z,11.93
2022-09-22T18:32:14.904Z,6.03
2022-09-22T18:35:19.510Z,5.43
2022-09-22T18:38:23.452Z,9.40
2022-09-22T18:41:27.821Z,7.07
2022-09-22T18:44:31.554Z,6.43
2022-09-22T18:47:43.004Z,8.10
2022-09-22T18:50:47.069Z,8.13
2022-09-22T18:53:51.277Z,4.80
2022-09-22T18:56:54.953Z,7.43
2022-09-22T18:59:59.660Z,10.23
2022-09-22T19:03:05.686Z,17.85
2022-09-22T19:06:09.739Z,14.13
2022-09-22T19:12:18.678Z,17.38
2022-09-22T19:15:22.941Z,15.68
2022-09-22T19:18:28.574Z,13.68
2022-09-22T19:21:35.002Z,14.88
2022-09-22T19:24:41.101Z,14.43
2022-09-22T19:27:44.714Z,9.40
2022-09-22T19:30:48.356Z,11.40
2022-09-22T19:33:53.911Z,10.00
2022-09-22T19:36:58.111Z,14.90
2022-09-22T19:40:01.711Z,11.43
2022-09-22T19:43:05.476Z,12.18
2022-09-22T19:46:09.108Z,14.35
2022-09-22T19:49:15.846Z,18.63
2022-09-22T19:52:19.464Z,18.30
2022-09-22T19:55:23.184Z,13.90
2022-09-22T19:58:27.032Z,10.02
2022-09-22T20:01:32.735Z,8.20
2022-09-22T20:04:38.486Z,14.02
2022-09-22T20:07:42.103Z,10.15
2022-09-22T20:10:46.767Z,15.35
2022-09-22T20:14:03.618Z,15.32
2022-09-22T20:17:09.547Z,14.95
2022-09-22T20:20:16.211Z,13.63
2022-09-22T20:23:21.497Z,15.05
2022-09-22T20:26:26.034Z,10.05
2022-09-22T20:29:29.801Z,14.45
2022-09-22T20:32:33.958Z,12.65
2022-09-22T20:35:39.689Z,15.52
2022-09-22T20:38:43.596Z,15.48
2022-09-22T20:41:47.397Z,14.68
2022-09-22T20:44:51.881Z,12.68
2022-09-22T20:47:55.680Z,10.85
2022-09-22T20:51:02.793Z,8.10
2022-09-22T20:54:07.702Z,16.08
2022-09-22T20:57:11.727Z,13.65
2022-09-22T21:03:21.476Z,10.20
2022-09-22T21:06:27.433Z,13.30
2022-09-22T21:09:44.357Z,11.75
2022-09-22T21:12:50.058Z,10.25
2022-09-22T21:15:59.974Z,15.73
2022-09-22T21:19:04.094Z,9.02
2022-09-22T21:25:13.523Z,11.23
2022-09-22T21:31:21.945Z,10.52
2022-09-22T21:34:26.099Z,10.32
2022-09-22T21:40:35.397Z,10.63
2022-09-22T21:43:39.801Z,11.30
2022-09-22T21:46:43.654Z,18.65
2022-09-22T21:49:49.163Z,16.35
2022-09-22T21:52:54.715Z,9.10
2022-09-22T21:55:59.670Z,8.00
2022-09-22T21:59:03.823Z,7.57
2022-09-22T22:02:07.449Z,21.55
2022-09-22T22:05:14.642Z,8.35
2022-09-22T22:08:20.185Z,6.20
2022-09-22T22:11:25.837Z,14.48
2022-09-22T22:14:34.270Z,8.05
2022-09-22T22:17:37.855Z,8.68
2022-09-22T22:20:41.458Z,8.88
2022-09-22T22:23:48.809Z,11.05
2022-09-22T22:26:56.371Z,8.98
2022-09-22T22:30:00.156Z,7.85
2022-09-22T22:33:03.766Z,11.18
2022-09-22T22:36:09.694Z,13.50
2022-09-22T22:39:15.779Z,10.52
2022-09-22T22:42:19.482Z,8.40
2022-09-22T22:45:23.089Z,11.55
2022-09-22T22:48:27.699Z,8.60
2022-09-22T22:51:31.483Z,18.60
2022-09-22T22:54:37.157Z,8.52
2022-09-22T22:57:40.791Z,9.73
2022-09-22T23:00:44.409Z,9.80
2022-09-22T23:03:49.594Z,11.75
2022-09-22T23:06:53.270Z,11.00
2022-09-22T23:10:07.377Z,8.90
2022-09-22T23:13:11.459Z,12.52
2022-09-22T23:19:20.271Z,12.52
2022-09-22T23:22:24.021Z,13.73
2022-09-22T23:25:29.581Z,9.27
2022-09-22T23:28:34.028Z,10.10
2022-09-22T23:31:37.654Z,9.60
2022-09-22T23:34:41.262Z,9.82
2022-09-22T23:37:44.909Z,8.65
2022-09-22T23:40:50.626Z,11.48
2022-09-22T23:43:54.302Z,10.18
2022-09-22T23:46:58.595Z,8.85
2022-09-22T23:50:02.371Z,9.90
2022-09-22T23:53:06.970Z,9.00
2022-09-22T23:56:12.960Z,10.73
2022-09-22T23:59:16.604Z,8.20
